createdAt,value
2023-03-31T00:01:09.833Z,64.65
2023-03-31T00:03:46.439Z,64.05
2023-03-31T00:06:18.989Z,63.69
2023-03-31T00:08:52.605Z,64.05
2023-03-31T00:11:22.782Z,64.03
2023-03-31T00:13:50.848Z,64.33
2023-03-31T00:16:19.485Z,64.04
2023-03-31T00:18:51.379Z,64.72
2023-03-31T00:21:25.917Z,65.36
2023-03-31T00:23:56.190Z,65.78
2023-03-31T00:26:26.508Z,65.08
2023-03-31T00:28:54.635Z,64.60
2023-03-31T00:31:23.600Z,65.30
2023-03-31T00:33:52.182Z,64.76
2023-03-31T00:36:27.656Z,64.84
2023-03-31T00:39:01.223Z,64.67
2023-03-31T00:41:30.978Z,64.90
2023-03-31T00:44:13.393Z,65.44
2023-03-31T00:46:55.350Z,66.03
2023-03-31T00:49:31.746Z,66.19
2023-03-31T00:52:22.045Z,66.39
2023-03-31T00:54:54.056Z,67.36
2023-03-31T00:57:24.766Z,67.56
2023-03-31T00:59:59.228Z,67.47
2023-03-31T01:02:28.873Z,66.67
2023-03-31T01:05:02.651Z,67.43
2023-03-31T01:07:46.530Z,67.39
2023-03-31T01:10:14.771Z,68.31
2023-03-31T01:12:47.445Z,67.82
2023-03-31T01:15:15.896Z,67.71
2023-03-31T01:17:45.264Z,66.16
2023-03-31T01:20:15.976Z,65.78
2023-03-31T01:23:20.468Z,66.25
2023-03-31T01:26:16.120Z,67.13
2023-03-31T01:29:11.585Z,67.87
2023-03-31T01:32:03.840Z,67.67
2023-03-31T01:35:02.947Z,69.04
2023-03-31T01:37:42.875Z,68.83
2023-03-31T01:40:11.050Z,69.51
2023-03-31T01:42:41.650Z,69.06
2023-03-31T01:45:30.715Z,69.36
2023-03-31T01:47:59.469Z,68.82
2023-03-31T01:50:35.808Z,68.09
2023-03-31T01:53:10.941Z,68.19
2023-03-31T01:55:51.459Z,67.81
2023-03-31T01:58:26.519Z,68.11
2023-03-31T02:01:03.916Z,67.95
2023-03-31T02:03:38.152Z,69.29
2023-03-31T02:06:12.896Z,68.47
2023-03-31T02:08:46.842Z,68.47
2023-03-31T02:11:15.729Z,68.31
2023-03-31T02:13:47.724Z,68.07
2023-03-31T02:16:22.368Z,69.42
2023-03-31T02:18:53.663Z,70.06
2023-03-31T02:21:23.127Z,69.69
2023-03-31T02:23:52.283Z,69.70
2023-03-31T02:26:27.693Z,69.30
2023-03-31T02:28:58.898Z,68.87
2023-03-31T02:31:39.434Z,69.02
2023-03-31T02:34:08.023Z,68.33
2023-03-31T02:36:36.947Z,68.02
2023-03-31T02:39:07.350Z,67.47
2023-03-31T02:41:36.083Z,67.31
2023-03-31T02:44:04.263Z,67.86
2023-03-31T02:46:32.720Z,68.55
2023-03-31T02:49:05.286Z,69.14
2023-03-31T02:51:48.304Z,68.21
2023-03-31T02:57:06.074Z,69.34
2023-03-31T03:00:08.583Z,69.94
2023-03-31T03:03:16.721Z,71.47
2023-03-31T03:06:05.165Z,73.24
2023-03-31T03:09:36.371Z,73.01
2023-03-31T03:12:25.106Z,74.00
2023-03-31T03:15:24.931Z,75.14
2023-03-31T03:17:55.581Z,74.59
2023-03-31T03:20:26.457Z,75.04
2023-03-31T03:22:54.430Z,75.49
2023-03-31T03:25:22.349Z,75.53
2023-03-31T03:27:53.246Z,74.94
2023-03-31T03:30:21.942Z,75.46
2023-03-31T03:32:50.738Z,76.47
2023-03-31T03:35:18.696Z,76.09
2023-03-31T03:37:46.763Z,75.41
2023-03-31T03:40:15.572Z,76.66
2023-03-31T03:42:43.644Z,76.59
2023-03-31T03:45:11.693Z,77.51
2023-03-31T03:47:39.657Z,77.86
2023-03-31T03:50:08.281Z,77.67
2023-03-31T03:52:36.243Z,77.23
2023-03-31T03:55:05.918Z,78.54
2023-03-31T03:57:33.768Z,79.90
2023-03-31T04:00:01.753Z,78.78
2023-03-31T04:02:40.149Z,78.74
2023-03-31T04:05:08.581Z,78.36
2023-03-31T04:07:36.561Z,77.60
2023-03-31T04:10:04.781Z,78.85
2023-03-31T04:12:35.218Z,79.28
2023-03-31T04:15:03.404Z,79.75
2023-03-31T04:17:35.166Z,80.35
2023-03-31T04:20:11.949Z,82.02
2023-03-31T04:22:47.221Z,82.63
2023-03-31T04:25:16.886Z,83.15
2023-03-31T04:27:55.183Z,81.88
2023-03-31T04:30:24.838Z,81.22
2023-03-31T04:32:56.718Z,83.21
2023-03-31T04:35:26.686Z,82.91
2023-03-31T04:37:59.346Z,82.50
2023-03-31T04:40:27.638Z,81.97
2023-03-31T04:42:55.620Z,81.67
2023-03-31T04:45:23.650Z,81.92
2023-03-31T04:47:51.649Z,81.92
2023-03-31T04:50:20.540Z,80.67
2023-03-31T04:52:48.612Z,80.37
2023-03-31T04:55:16.819Z,82.73
2023-03-31T04:57:44.689Z,83.25
2023-03-31T05:00:13.388Z,82.42
2023-03-31T05:02:41.453Z,83.72
2023-03-31T05:05:10.706Z,83.01
2023-03-31T05:07:39.201Z,81.25
2023-03-31T05:10:07.919Z,80.43
2023-03-31T05:12:39.507Z,81.09
2023-03-31T05:15:08.598Z,80.76
2023-03-31T05:17:37.090Z,80.75
2023-03-31T05:20:08.845Z,81.25
2023-03-31T05:22:38.536Z,80.89
2023-03-31T05:25:08.568Z,82.12
2023-03-31T05:27:36.938Z,82.33
2023-03-31T05:30:05.939Z,81.03
2023-03-31T05:32:34.235Z,82.04
2023-03-31T05:35:02.476Z,81.43
2023-03-31T05:37:31.037Z,80.63
2023-03-31T05:39:59.275Z,79.58
2023-03-31T05:42:27.289Z,78.09
2023-03-31T05:44:55.566Z,77.51
2023-03-31T05:47:23.615Z,77.10
2023-03-31T05:49:52.187Z,77.40
2023-03-31T05:52:20.199Z,77.81
2023-03-31T05:54:48.427Z,77.24
2023-03-31T05:57:16.812Z,79.14
2023-03-31T05:59:44.849Z,77.70
2023-03-31T06:02:16.334Z,78.75
2023-03-31T06:04:44.605Z,77.58
2023-03-31T06:07:13.679Z,78.64
2023-03-31T06:09:41.686Z,77.45
2023-03-31T06:12:09.790Z,77.71
2023-03-31T06:14:37.977Z,77.93
2023-03-31T06:17:06.005Z,78.49
2023-03-31T06:19:34.034Z,77.34
2023-03-31T06:22:02.414Z,78.05
2023-03-31T06:24:31.304Z,75.94
2023-03-31T06:27:01.187Z,74.91
2023-03-31T06:29:29.327Z,75.09
2023-03-31T06:31:57.411Z,74.20
2023-03-31T06:34:25.449Z,75.01
2023-03-31T06:36:53.737Z,73.97
2023-03-31T06:39:21.854Z,74.18
2023-03-31T06:41:49.719Z,70.34
2023-03-31T06:44:26.895Z,62.61
2023-03-31T06:46:55.293Z,59.63
2023-03-31T06:49:23.205Z,59.99
2023-03-31T06:51:51.579Z,60.43
2023-03-31T06:54:19.471Z,58.83
2023-03-31T06:56:47.628Z,57.22
2023-03-31T06:59:15.819Z,57.55
2023-03-31T07:01:45.611Z,57.46
2023-03-31T07:04:13.593Z,57.05
2023-03-31T07:06:41.731Z,57.53
2023-03-31T07:09:09.765Z,56.02
2023-03-31T07:11:37.785Z,55.20
2023-03-31T07:14:05.795Z,55.32
2023-03-31T07:16:33.718Z,54.68
2023-03-31T07:19:04.570Z,55.67
2023-03-31T07:21:32.887Z,54.29
2023-03-31T07:24:00.839Z,53.85
2023-03-31T07:26:29.136Z,50.91
2023-03-31T07:28:57.818Z,45.65
2023-03-31T07:31:26.237Z,38.46
2023-03-31T07:33:54.197Z,35.77
2023-03-31T07:36:22.892Z,31.72
2023-03-31T07:38:51.015Z,29.48
2023-03-31T07:41:21.187Z,28.57
2023-03-31T07:43:50.545Z,27.21
2023-03-31T07:46:25.268Z,26.25
2023-03-31T07:48:55.095Z,25.57
2023-03-31T07:51:27.329Z,24.17
2023-03-31T07:53:55.473Z,24.07
2023-03-31T07:56:25.150Z,24.55
2023-03-31T07:58:56.088Z,26.51
2023-03-31T08:01:26.644Z,26.19
2023-03-31T08:03:55.978Z,23.87
2023-03-31T08:06:26.203Z,23.67
2023-03-31T08:08:54.383Z,23.88
2023-03-31T08:11:22.522Z,25.12
2023-03-31T08:13:51.213Z,22.95
2023-03-31T08:16:19.514Z,23.71
2023-03-31T08:18:47.475Z,23.52
2023-03-31T08:21:15.456Z,23.23
2023-03-31T08:23:43.369Z,22.64
2023-03-31T08:26:16.421Z,23.44
2023-03-31T08:28:46.626Z,23.67
2023-03-31T08:31:16.574Z,25.06
2023-03-31T08:33:45.596Z,25.91
2023-03-31T08:36:14.215Z,26.59
2023-03-31T08:38:46.442Z,25.66
2023-03-31T08:41:35.923Z,24.15
2023-03-31T08:44:11.805Z,25.39
2023-03-31T08:46:41.758Z,26.75
2023-03-31T08:49:16.907Z,26.51
2023-03-31T08:51:52.132Z,26.99
2023-03-31T08:54:25.583Z,28.30
2023-03-31T08:56:53.722Z,29.80
2023-03-31T08:59:51.537Z,31.18
2023-03-31T09:02:44.533Z,30.72
2023-03-31T09:05:27.781Z,31.13
2023-03-31T09:08:06.179Z,28.52
2023-03-31T09:10:46.072Z,27.36
2023-03-31T09:13:54.017Z,25.06
2023-03-31T09:16:32.049Z,26.03
2023-03-31T09:19:01.846Z,25.78
2023-03-31T09:21:34.368Z,24.70
2023-03-31T09:24:21.247Z,23.24
2023-03-31T09:27:02.214Z,22.61
2023-03-31T09:29:40.915Z,22.50
2023-03-31T09:32:16.802Z,24.04
2023-03-31T09:34:47.399Z,25.78
2023-03-31T09:37:15.748Z,27.22
2023-03-31T09:39:44.172Z,28.66
2023-03-31T09:42:15.373Z,28.22
2023-03-31T09:44:50.376Z,30.48
2023-03-31T09:47:42.860Z,31.10
2023-03-31T09:50:12.033Z,30.50
2023-03-31T09:52:56.096Z,31.63
2023-03-31T09:55:38.963Z,32.21
2023-03-31T09:58:12.753Z,31.47
2023-03-31T10:01:06.614Z,31.29
2023-03-31T10:03:54.201Z,31.48
2023-03-31T10:06:24.707Z,29.58
2023-03-31T10:09:02.508Z,28.17
2023-03-31T10:11:31.631Z,27.69
2023-03-31T10:14:07.345Z,26.93
2023-03-31T10:16:47.466Z,26.84
2023-03-31T10:19:24.556Z,27.46
2023-03-31T10:21:59.573Z,28.33
2023-03-31T10:24:38.400Z,29.87
2023-03-31T10:27:22.039Z,28.76
2023-03-31T10:30:12.451Z,28.47
2023-03-31T10:32:43.470Z,27.90
2023-03-31T10:35:23.721Z,28.25
2023-03-31T10:37:57.030Z,28.79
2023-03-31T10:40:32.236Z,29.17
2023-03-31T10:43:13.977Z,29.38
2023-03-31T10:45:55.093Z,30.51
2023-03-31T10:48:42.225Z,31.25
2023-03-31T10:51:18.144Z,32.25
2023-03-31T10:53:51.635Z,32.70
2023-03-31T10:56:42.612Z,32.52
2023-03-31T10:59:32.767Z,32.96
2023-03-31T11:02:19.653Z,33.18
2023-03-31T11:05:06.861Z,35.05
2023-03-31T11:07:47.125Z,34.48
2023-03-31T11:10:54.148Z,35.43
2023-03-31T11:13:22.149Z,36.04
2023-03-31T11:16:08.916Z,35.65
2023-03-31T11:18:43.043Z,35.89
2023-03-31T11:21:32.187Z,36.18
2023-03-31T11:24:27.198Z,35.77
2023-03-31T11:27:19.335Z,36.34
2023-03-31T11:30:01.691Z,35.28
2023-03-31T11:32:44.917Z,36.64
2023-03-31T11:35:31.397Z,36.65
2023-03-31T11:38:34.046Z,36.01
2023-03-31T11:41:21.949Z,35.80
2023-03-31T11:43:54.633Z,35.75
2023-03-31T11:46:33.493Z,35.52
2023-03-31T11:49:04.553Z,35.51
2023-03-31T11:51:47.602Z,35.97
2023-03-31T11:54:41.035Z,35.94
2023-03-31T11:57:22.225Z,35.79
2023-03-31T11:59:57.692Z,35.80
2023-03-31T12:02:51.549Z,35.06
2023-03-31T12:05:23.181Z,35.93
2023-03-31T12:08:08.850Z,35.94
2023-03-31T12:10:47.603Z,34.98
2023-03-31T12:13:24.542Z,34.62
2023-03-31T12:16:10.931Z,35.25
2023-03-31T12:19:20.019Z,34.97
2023-03-31T12:21:54.090Z,35.49
2023-03-31T12:24:22.206Z,35.27
2023-03-31T12:27:03.991Z,35.41
2023-03-31T12:29:37.348Z,35.29
2023-03-31T12:32:15.120Z,35.54
2023-03-31T12:34:56.774Z,35.08
2023-03-31T12:38:01.252Z,36.45
2023-03-31T12:40:47.580Z,37.47
2023-03-31T12:43:53.896Z,37.98
2023-03-31T12:46:52.108Z,38.26
2023-03-31T12:49:37.503Z,37.78
2023-03-31T12:52:42.909Z,38.20
2023-03-31T12:55:33.600Z,38.34
2023-03-31T12:58:24.997Z,38.57
2023-03-31T13:01:11.118Z,38.66
2023-03-31T13:04:04.799Z,38.66
2023-03-31T13:06:33.007Z,38.79
2023-03-31T13:09:06.195Z,37.52
2023-03-31T13:11:34.177Z,37.41
2023-03-31T13:14:12.572Z,38.20
2023-03-31T13:16:41.048Z,36.81
2023-03-31T13:19:13.731Z,36.65
2023-03-31T13:21:55.008Z,36.37
2023-03-31T13:24:24.688Z,36.08
2023-03-31T13:26:59.222Z,35.47
2023-03-31T13:29:44.556Z,35.75
2023-03-31T13:32:23.110Z,34.94
2023-03-31T13:35:01.005Z,34.51
2023-03-31T13:37:46.522Z,35.22
2023-03-31T13:40:43.987Z,36.12
2023-03-31T13:43:53.731Z,35.52
2023-03-31T13:46:34.229Z,36.41
2023-03-31T13:49:20.906Z,36.17
2023-03-31T13:52:01.077Z,36.22
2023-03-31T13:55:04.855Z,36.27
2023-03-31T13:57:36.027Z,36.92
2023-03-31T14:00:23.118Z,36.93
2023-03-31T14:03:01.002Z,36.80
2023-03-31T14:05:56.218Z,37.06
2023-03-31T14:08:30.226Z,37.26
2023-03-31T14:11:27.248Z,37.54
2023-03-31T14:14:13.838Z,37.56
2023-03-31T14:17:02.914Z,37.74
2023-03-31T14:19:44.815Z,38.18
2023-03-31T14:22:32.592Z,37.98
2023-03-31T14:25:37.930Z,37.82
2023-03-31T14:28:46.992Z,36.67
2023-03-31T14:31:45.581Z,36.98
2023-03-31T14:34:32.734Z,36.47
2023-03-31T14:37:04.301Z,36.06
2023-03-31T14:39:37.407Z,36.01
2023-03-31T14:42:12.789Z,36.34
2023-03-31T14:44:47.018Z,37.48
2023-03-31T14:47:30.886Z,37.20
2023-03-31T14:50:04.302Z,36.76
2023-03-31T14:52:36.009Z,36.42
2023-03-31T14:55:04.960Z,35.57
2023-03-31T14:57:36.574Z,36.68
2023-03-31T15:00:08.756Z,36.02
2023-03-31T15:02:41.519Z,36.12
2023-03-31T15:05:22.265Z,35.49
2023-03-31T15:07:51.109Z,35.84
2023-03-31T15:10:22.699Z,35.64
2023-03-31T15:12:52.136Z,35.62
2023-03-31T15:15:24.196Z,36.15
2023-03-31T15:17:55.454Z,35.88
2023-03-31T15:20:38.457Z,35.92
2023-03-31T15:23:27.096Z,36.06
2023-03-31T15:26:08.656Z,37.84
2023-03-31T15:28:47.750Z,37.91
2023-03-31T15:31:17.469Z,37.80
2023-03-31T15:33:47.474Z,37.89
2023-03-31T15:36:16.248Z,38.96
2023-03-31T15:38:44.915Z,38.89
2023-03-31T15:41:13.880Z,38.68
2023-03-31T15:43:42.285Z,40.36
2023-03-31T15:46:18.819Z,40.73
2023-03-31T15:48:56.777Z,41.46
2023-03-31T15:51:36.225Z,41.27
2023-03-31T15:54:25.027Z,42.18
2023-03-31T15:56:59.861Z,42.97
2023-03-31T15:59:41.631Z,43.54
2023-03-31T16:02:22.774Z,44.22
2023-03-31T16:04:56.840Z,44.43
2023-03-31T16:07:30.255Z,44.58
2023-03-31T16:10:03.790Z,45.05
2023-03-31T16:12:50.477Z,44.84
2023-03-31T16:15:30.953Z,45.38
2023-03-31T16:18:11.187Z,45.50
2023-03-31T16:20:50.925Z,46.04
2023-03-31T16:23:28.550Z,47.18
2023-03-31T16:25:56.749Z,46.84
2023-03-31T16:28:31.769Z,46.86
2023-03-31T16:31:02.359Z,47.65
2023-03-31T16:33:32.459Z,48.16
2023-03-31T16:36:03.127Z,48.17
2023-03-31T16:38:31.623Z,48.68
2023-03-31T16:41:00.935Z,49.49
2023-03-31T16:43:31.938Z,50.14
2023-03-31T16:46:04.417Z,50.39
2023-03-31T16:48:36.781Z,50.97
2023-03-31T16:51:06.409Z,51.73
2023-03-31T16:53:37.368Z,51.99
2023-03-31T16:56:12.159Z,52.42
2023-03-31T16:58:41.856Z,52.29
2023-03-31T17:01:10.723Z,52.59
2023-03-31T17:03:42.302Z,53.17
2023-03-31T17:06:13.894Z,54.28
2023-03-31T17:08:42.702Z,54.42
2023-03-31T17:11:14.876Z,54.68
2023-03-31T17:13:45.025Z,54.23
2023-03-31T17:16:22.101Z,54.79
2023-03-31T17:18:57.889Z,55.09
2023-03-31T17:21:26.707Z,55.20
2023-03-31T17:23:55.061Z,55.27
2023-03-31T17:26:24.153Z,56.11
2023-03-31T17:28:53.129Z,56.85
2023-03-31T17:31:22.369Z,56.38
2023-03-31T17:33:50.858Z,56.26
2023-03-31T17:36:19.376Z,56.32
2023-03-31T17:38:47.615Z,56.42
2023-03-31T17:41:18.131Z,56.50
2023-03-31T17:43:49.194Z,55.97
2023-03-31T17:46:19.454Z,56.84
2023-03-31T17:48:48.837Z,56.58
2023-03-31T17:51:19.461Z,55.80
2023-03-31T17:53:48.531Z,55.94
2023-03-31T17:56:18.301Z,55.90
2023-03-31T17:58:47.793Z,56.47
2023-03-31T18:01:16.619Z,56.73
2023-03-31T18:03:46.698Z,56.99
2023-03-31T18:06:15.624Z,57.28
2023-03-31T18:08:45.416Z,57.09
2023-03-31T18:11:14.960Z,57.73
2023-03-31T18:13:43.731Z,57.64
2023-03-31T18:16:13.328Z,57.32
2023-03-31T18:18:42.822Z,57.92
2023-03-31T18:21:13.499Z,57.82
2023-03-31T18:23:42.353Z,57.27
2023-03-31T18:26:12.316Z,57.90
2023-03-31T18:28:41.526Z,57.90
2023-03-31T18:31:11.829Z,58.19
2023-03-31T18:33:41.338Z,58.29
2023-03-31T18:36:17.326Z,58.96
2023-03-31T18:38:47.778Z,60.96
2023-03-31T18:41:20.662Z,61.26
2023-03-31T18:43:52.402Z,60.93
2023-03-31T18:46:21.541Z,59.80
2023-03-31T18:48:50.842Z,60.91
2023-03-31T18:51:19.567Z,61.08
2023-03-31T18:53:47.895Z,61.43
2023-03-31T18:56:16.459Z,61.32
2023-03-31T18:58:44.988Z,60.88
2023-03-31T19:01:13.661Z,60.80
2023-03-31T19:03:44.043Z,61.24
2023-03-31T19:06:12.659Z,62.13
2023-03-31T19:08:41.312Z,63.47
2023-03-31T19:11:17.392Z,64.29
2023-03-31T19:13:46.046Z,64.28
2023-03-31T19:16:14.888Z,63.65
2023-03-31T19:18:44.056Z,63.70
2023-03-31T19:21:12.792Z,63.84
2023-03-31T19:23:41.442Z,64.24
2023-03-31T19:26:14.222Z,63.94
2023-03-31T19:28:43.398Z,63.56
2023-03-31T19:31:12.394Z,64.14
2023-03-31T19:33:40.653Z,64.76
2023-03-31T19:36:09.098Z,65.03
2023-03-31T19:38:37.630Z,66.12
2023-03-31T19:41:06.696Z,65.84
2023-03-31T19:43:35.321Z,65.94
2023-03-31T19:46:04.155Z,66.02
2023-03-31T19:48:34.365Z,65.01
2023-03-31T19:51:08.720Z,65.33
2023-03-31T19:53:38.934Z,64.48
2023-03-31T19:56:10.276Z,64.34
2023-03-31T19:58:40.399Z,63.84
2023-03-31T20:01:28.854Z,65.40
2023-03-31T20:03:57.671Z,64.98
2023-03-31T20:06:28.988Z,64.21
2023-03-31T20:09:01.463Z,65.14
2023-03-31T20:11:32.437Z,66.15
2023-03-31T20:14:02.156Z,65.76
2023-03-31T20:16:32.016Z,65.54
2023-03-31T20:19:04.886Z,65.04
2023-03-31T20:21:36.622Z,67.41
2023-03-31T20:24:06.417Z,67.43
2023-03-31T20:26:35.531Z,67.40
2023-03-31T20:29:04.285Z,66.60
2023-03-31T20:31:38.009Z,65.83
2023-03-31T20:34:12.534Z,65.96
2023-03-31T20:36:43.340Z,64.63
2023-03-31T20:39:14.438Z,65.42
2023-03-31T20:41:43.802Z,67.43
2023-03-31T20:44:15.748Z,66.91
2023-03-31T20:46:45.231Z,66.29
2023-03-31T20:49:13.870Z,67.54
2023-03-31T20:51:43.005Z,67.20
2023-03-31T20:54:11.132Z,67.03
2023-03-31T20:56:41.018Z,67.47
2023-03-31T20:59:12.852Z,67.73
2023-03-31T21:01:42.772Z,67.09
2023-03-31T21:04:11.884Z,68.09
2023-03-31T21:06:42.717Z,69.28
2023-03-31T21:09:14.941Z,69.18
2023-03-31T21:11:43.148Z,71.12
2023-03-31T21:14:14.794Z,70.10
2023-03-31T21:16:43.300Z,69.71
2023-03-31T21:19:11.709Z,72.03
2023-03-31T21:21:41.542Z,71.93
2023-03-31T21:24:11.833Z,72.18
2023-03-31T21:26:40.513Z,71.93
2023-03-31T21:29:08.574Z,71.20
2023-03-31T21:31:36.827Z,71.32
2023-03-31T21:34:05.490Z,70.99
2023-03-31T21:36:33.866Z,70.38
2023-03-31T21:39:02.273Z,70.47
2023-03-31T21:41:31.048Z,70.33
2023-03-31T21:44:02.762Z,70.10
2023-03-31T21:46:33.838Z,69.00
2023-03-31T21:49:03.053Z,69.30
2023-03-31T21:51:31.085Z,69.77
2023-03-31T21:53:58.955Z,69.55
2023-03-31T21:56:31.984Z,69.13
2023-03-31T21:59:01.655Z,68.80
2023-03-31T22:01:29.839Z,69.86
2023-03-31T22:03:59.398Z,68.78
2023-03-31T22:06:27.467Z,68.24
2023-03-31T22:08:55.687Z,68.48
2023-03-31T22:11:23.936Z,68.14
2023-03-31T22:13:52.052Z,67.76
2023-03-31T22:16:22.856Z,68.00
2023-03-31T22:18:53.046Z,67.46
2023-03-31T22:21:24.058Z,67.69
2023-03-31T22:23:59.957Z,67.53
2023-03-31T22:26:29.401Z,67.95
2023-03-31T22:28:57.708Z,68.08
2023-03-31T22:31:27.170Z,68.00
2023-03-31T22:33:55.215Z,67.80
2023-03-31T22:36:23.780Z,69.25
2023-03-31T22:38:51.749Z,69.04
2023-03-31T22:41:19.795Z,68.61
2023-03-31T22:43:47.890Z,68.64
2023-03-31T22:46:16.219Z,69.14
2023-03-31T22:48:47.688Z,69.19
2023-03-31T22:51:16.483Z,68.93
2023-03-31T22:53:50.195Z,70.07
2023-03-31T22:56:19.197Z,69.14
2023-03-31T22:58:47.976Z,69.33
2023-03-31T23:01:18.933Z,69.96
2023-03-31T23:03:47.340Z,69.20
2023-03-31T23:06:16.594Z,69.36
2023-03-31T23:08:49.388Z,69.78
2023-03-31T23:11:18.963Z,69.80
2023-03-31T23:13:47.615Z,69.98
2023-03-31T23:16:24.008Z,69.50
2023-03-31T23:18:54.137Z,69.36
2023-03-31T23:21:24.948Z,69.24
2023-03-31T23:23:55.772Z,69.09
2023-03-31T23:26:26.564Z,68.17
2023-03-31T23:28:55.107Z,68.47
2023-03-31T23:31:26.245Z,68.87
2023-03-31T23:33:54.322Z,68.80
2023-03-31T23:36:22.784Z,68.10
2023-03-31T23:38:53.810Z,68.29
2023-03-31T23:41:23.121Z,68.33
2023-03-31T23:43:54.797Z,67.53
2023-03-31T23:46:24.645Z,67.85
2023-03-31T23:48:53.110Z,69.36
2023-03-31T23:51:21.117Z,68.45
2023-03-31T23:53:49.179Z,68.51
2023-03-31T23:56:17.813Z,68.50
2023-03-31T23:58:46.113Z,68.12
